sensor_id;sensor_type;location;lat;lon;timestamp;P1;durP1;ratioP1;P2;durP2;ratioP2
22632;SDS011;11483;55.828;37.488;2023-04-06T00:01:39;13.77;;;5.73;;
22632;SDS011;11483;55.828;37.488;2023-04-06T00:04:05;11.23;;;5.87;;
22632;SDS011;11483;55.828;37.488;2023-04-06T00:06:32;10.43;;;5.57;;
22632;SDS011;11483;55.828;37.488;2023-04-06T00:08:59;16.20;;;5.97;;
22632;SDS011;11483;55.828;37.488;2023-04-06T00:11:25;12.07;;;5.87;;
22632;SDS011;11483;55.828;37.488;2023-04-06T00:13:51;13.00;;;5.63;;
22632;SDS011;11483;55.828;37.488;2023-04-06T00:16:17;15.43;;;6.03;;
22632;SDS011;11483;55.828;37.488;2023-04-06T00:18:43;10.47;;;5.93;;
22632;SDS011;11483;55.828;37.488;2023-04-06T00:21:13;15.35;;;6.57;;
22632;SDS011;11483;55.828;37.488;2023-04-06T00:23:40;16.57;;;6.10;;
22632;SDS011;11483;55.828;37.488;2023-04-06T00:26:06;11.20;;;5.37;;
22632;SDS011;11483;55.828;37.488;2023-04-06T00:28:32;19.47;;;5.40;;
22632;SDS011;11483;55.828;37.488;2023-04-06T00:30:58;10.07;;;5.70;;
22632;SDS011;11483;55.828;37.488;2023-04-06T00:33:23;11.87;;;6.20;;
22632;SDS011;11483;55.828;37.488;2023-04-06T00:35:49;17.30;;;6.03;;
22632;SDS011;11483;55.828;37.488;2023-04-06T00:38:15;14.67;;;6.30;;
22632;SDS011;11483;55.828;37.488;2023-04-06T00:40:42;11.43;;;6.23;;
22632;SDS011;11483;55.828;37.488;2023-04-06T00:43:11;13.87;;;6.23;;
22632;SDS011;11483;55.828;37.488;2023-04-06T00:45:41;12.53;;;6.27;;
22632;SDS011;11483;55.828;37.488;2023-04-06T00:48:07;12.63;;;5.90;;
22632;SDS011;11483;55.828;37.488;2023-04-06T00:50:34;10.57;;;5.70;;
22632;SDS011;11483;55.828;37.488;2023-04-06T00:53:00;11.30;;;6.23;;
22632;SDS011;11483;55.828;37.488;2023-04-06T00:55:26;18.07;;;6.37;;
22632;SDS011;11483;55.828;37.488;2023-04-06T00:57:53;10.03;;;5.73;;
22632;SDS011;11483;55.828;37.488;2023-04-06T01:00:19;16.57;;;7.27;;
22632;SDS011;11483;55.828;37.488;2023-04-06T01:02:45;11.63;;;6.33;;
22632;SDS011;11483;55.828;37.488;2023-04-06T01:05:12;15.77;;;6.83;;
22632;SDS011;11483;55.828;37.488;2023-04-06T01:07:39;27.80;;;7.10;;
22632;SDS011;11483;55.828;37.488;2023-04-06T01:10:05;15.70;;;6.70;;
22632;SDS011;11483;55.828;37.488;2023-04-06T01:12:31;11.67;;;7.50;;
22632;SDS011;11483;55.828;37.488;2023-04-06T01:14:57;13.53;;;6.03;;
22632;SDS011;11483;55.828;37.488;2023-04-06T01:17:24;13.10;;;6.90;;
22632;SDS011;11483;55.828;37.488;2023-04-06T01:19:50;14.00;;;6.43;;
22632;SDS011;11483;55.828;37.488;2023-04-06T01:22:19;21.13;;;7.00;;
22632;SDS011;11483;55.828;37.488;2023-04-06T01:24:45;15.13;;;6.60;;
22632;SDS011;11483;55.828;37.488;2023-04-06T01:27:12;10.73;;;6.20;;
22632;SDS011;11483;55.828;37.488;2023-04-06T01:29:38;14.80;;;6.97;;
22632;SDS011;11483;55.828;37.488;2023-04-06T01:32:06;12.20;;;6.47;;
22632;SDS011;11483;55.828;37.488;2023-04-06T01:34:32;13.03;;;6.40;;
22632;SDS011;11483;55.828;37.488;2023-04-06T01:36:58;14.13;;;7.37;;
22632;SDS011;11483;55.828;37.488;2023-04-06T01:39:25;13.93;;;6.70;;
22632;SDS011;11483;55.828;37.488;2023-04-06T01:41:51;13.30;;;6.83;;
22632;SDS011;11483;55.828;37.488;2023-04-06T01:44:17;15.00;;;6.33;;
22632;SDS011;11483;55.828;37.488;2023-04-06T01:46:44;14.97;;;7.23;;
22632;SDS011;11483;55.828;37.488;2023-04-06T01:49:11;14.53;;;6.83;;
22632;SDS011;11483;55.828;37.488;2023-04-06T01:51:37;14.83;;;6.33;;
22632;SDS011;11483;55.828;37.488;2023-04-06T01:54:03;15.90;;;6.40;;
22632;SDS011;11483;55.828;37.488;2023-04-06T01:56:29;13.23;;;6.47;;
22632;SDS011;11483;55.828;37.488;2023-04-06T01:58:55;19.43;;;7.37;;
22632;SDS011;11483;55.828;37.488;2023-04-06T02:01:21;13.53;;;6.53;;
22632;SDS011;11483;55.828;37.488;2023-04-06T02:03:47;10.83;;;5.90;;
22632;SDS011;11483;55.828;37.488;2023-04-06T02:06:13;10.13;;;6.40;;
22632;SDS011;11483;55.828;37.488;2023-04-06T02:08:39;13.37;;;6.07;;
22632;SDS011;11483;55.828;37.488;2023-04-06T02:11:05;13.87;;;6.27;;
22632;SDS011;11483;55.828;37.488;2023-04-06T02:13:31;14.23;;;6.20;;
22632;SDS011;11483;55.828;37.488;2023-04-06T02:15:56;14.50;;;6.37;;
22632;SDS011;11483;55.828;37.488;2023-04-06T02:18:23;15.47;;;6.57;;
22632;SDS011;11483;55.828;37.488;2023-04-06T02:20:49;16.63;;;6.03;;
22632;SDS011;11483;55.828;37.488;2023-04-06T02:23:14;19.47;;;6.73;;
22632;SDS011;11483;55.828;37.488;2023-04-06T02:25:40;12.00;;;6.30;;
22632;SDS011;11483;55.828;37.488;2023-04-06T02:28:07;10.37;;;6.40;;
22632;SDS011;11483;55.828;37.488;2023-04-06T02:30:32;13.80;;;6.23;;
22632;SDS011;11483;55.828;37.488;2023-04-06T02:33:01;12.40;;;5.67;;
22632;SDS011;11483;55.828;37.488;2023-04-06T02:35:28;13.17;;;5.53;;
22632;SDS011;11483;55.828;37.488;2023-04-06T02:37:55;12.23;;;6.53;;
22632;SDS011;11483;55.828;37.488;2023-04-06T02:40:21;13.60;;;6.67;;
22632;SDS011;11483;55.828;37.488;2023-04-06T02:42:47;13.20;;;6.63;;
22632;SDS011;11483;55.828;37.488;2023-04-06T02:45:13;11.97;;;6.00;;
22632;SDS011;11483;55.828;37.488;2023-04-06T02:47:39;13.10;;;6.50;;
22632;SDS011;11483;55.828;37.488;2023-04-06T02:50:05;15.23;;;6.63;;
22632;SDS011;11483;55.828;37.488;2023-04-06T02:52:31;17.40;;;6.30;;
22632;SDS011;11483;55.828;37.488;2023-04-06T02:54:57;12.43;;;6.33;;
22632;SDS011;11483;55.828;37.488;2023-04-06T02:57:23;16.10;;;6.47;;
22632;SDS011;11483;55.828;37.488;2023-04-06T02:59:49;16.13;;;6.97;;
22632;SDS011;11483;55.828;37.488;2023-04-06T03:02:15;15.83;;;6.80;;
22632;SDS011;11483;55.828;37.488;2023-04-06T03:04:41;14.67;;;6.60;;
22632;SDS011;11483;55.828;37.488;2023-04-06T03:07:07;15.13;;;6.37;;
22632;SDS011;11483;55.828;37.488;2023-04-06T03:09:34;13.40;;;6.53;;
22632;SDS011;11483;55.828;37.488;2023-04-06T03:12:02;14.33;;;6.60;;
22632;SDS011;11483;55.828;37.488;2023-04-06T03:14:28;13.33;;;6.87;;
22632;SDS011;11483;55.828;37.488;2023-04-06T03:16:54;14.20;;;6.73;;
22632;SDS011;11483;55.828;37.488;2023-04-06T03:19:20;16.67;;;6.67;;
22632;SDS011;11483;55.828;37.488;2023-04-06T03:21:45;14.80;;;6.17;;
22632;SDS011;11483;55.828;37.488;2023-04-06T03:24:12;16.17;;;6.40;;
22632;SDS011;11483;55.828;37.488;2023-04-06T03:26:38;12.70;;;6.10;;
22632;SDS011;11483;55.828;37.488;2023-04-06T03:29:05;11.67;;;6.47;;
22632;SDS011;11483;55.828;37.488;2023-04-06T03:31:31;14.90;;;6.17;;
22632;SDS011;11483;55.828;37.488;2023-04-06T03:33:56;15.23;;;6.53;;
22632;SDS011;11483;55.828;37.488;2023-04-06T03:36:22;13.80;;;5.70;;
22632;SDS011;11483;55.828;37.488;2023-04-06T03:38:48;15.17;;;6.13;;
22632;SDS011;11483;55.828;37.488;2023-04-06T03:41:14;15.57;;;6.60;;
22632;SDS011;11483;55.828;37.488;2023-04-06T03:43:40;15.30;;;5.53;;
22632;SDS011;11483;55.828;37.488;2023-04-06T03:46:06;15.40;;;7.20;;
22632;SDS011;11483;55.828;37.488;2023-04-06T03:48:32;17.57;;;6.73;;
22632;SDS011;11483;55.828;37.488;2023-04-06T03:50:57;12.27;;;5.70;;
22632;SDS011;11483;55.828;37.488;2023-04-06T03:53:23;16.37;;;6.20;;
22632;SDS011;11483;55.828;37.488;2023-04-06T03:55:49;15.30;;;6.10;;
22632;SDS011;11483;55.828;37.488;2023-04-06T03:58:15;12.40;;;5.90;;
22632;SDS011;11483;55.828;37.488;2023-04-06T04:00:41;14.23;;;5.87;;
22632;SDS011;11483;55.828;37.488;2023-04-06T04:03:07;10.30;;;5.93;;
22632;SDS011;11483;55.828;37.488;2023-04-06T04:05:33;11.53;;;5.87;;
22632;SDS011;11483;55.828;37.488;2023-04-06T04:07:59;20.53;;;6.77;;
22632;SDS011;11483;55.828;37.488;2023-04-06T04:10:25;16.10;;;6.10;;
22632;SDS011;11483;55.828;37.488;2023-04-06T04:12:51;10.83;;;5.83;;
22632;SDS011;11483;55.828;37.488;2023-04-06T04:15:16;13.03;;;6.03;;
22632;SDS011;11483;55.828;37.488;2023-04-06T04:17:42;15.07;;;6.33;;
22632;SDS011;11483;55.828;37.488;2023-04-06T04:20:12;14.27;;;6.83;;
22632;SDS011;11483;55.828;37.488;2023-04-06T04:22:38;15.20;;;5.63;;
22632;SDS011;11483;55.828;37.488;2023-04-06T04:25:04;20.13;;;7.67;;
22632;SDS011;11483;55.828;37.488;2023-04-06T04:27:30;16.07;;;6.93;;
22632;SDS011;11483;55.828;37.488;2023-04-06T04:29:56;15.90;;;6.03;;
22632;SDS011;11483;55.828;37.488;2023-04-06T04:32:22;11.80;;;6.37;;
22632;SDS011;11483;55.828;37.488;2023-04-06T04:34:52;17.83;;;6.43;;
22632;SDS011;11483;55.828;37.488;2023-04-06T04:37:18;17.00;;;6.13;;
22632;SDS011;11483;55.828;37.488;2023-04-06T04:39:44;18.83;;;6.90;;
22632;SDS011;11483;55.828;37.488;2023-04-06T04:42:11;12.00;;;5.77;;
22632;SDS011;11483;55.828;37.488;2023-04-06T04:44:36;9.87;;;5.07;;
22632;SDS011;11483;55.828;37.488;2023-04-06T04:47:02;9.93;;;6.10;;
22632;SDS011;11483;55.828;37.488;2023-04-06T04:49:28;17.77;;;6.33;;
22632;SDS011;11483;55.828;37.488;2023-04-06T04:51:54;11.60;;;6.40;;
22632;SDS011;11483;55.828;37.488;2023-04-06T04:54:20;11.93;;;5.80;;
22632;SDS011;11483;55.828;37.488;2023-04-06T04:56:46;20.60;;;6.23;;
22632;SDS011;11483;55.828;37.488;2023-04-06T04:59:12;25.37;;;6.17;;
22632;SDS011;11483;55.828;37.488;2023-04-06T05:01:38;13.80;;;5.70;;
22632;SDS011;11483;55.828;37.488;2023-04-06T05:04:04;34.27;;;7.00;;
22632;SDS011;11483;55.828;37.488;2023-04-06T05:06:30;21.40;;;7.07;;
22632;SDS011;11483;55.828;37.488;2023-04-06T05:08:56;10.00;;;5.17;;
22632;SDS011;11483;55.828;37.488;2023-04-06T05:11:22;10.63;;;5.87;;
22632;SDS011;11483;55.828;37.488;2023-04-06T05:13:48;16.58;;;5.90;;
22632;SDS011;11483;55.828;37.488;2023-04-06T05:16:14;14.07;;;5.87;;
22632;SDS011;11483;55.828;37.488;2023-04-06T05:18:40;14.23;;;6.60;;
22632;SDS011;11483;55.828;37.488;2023-04-06T05:21:06;11.52;;;6.35;;
22632;SDS011;11483;55.828;37.488;2023-04-06T05:23:32;13.40;;;5.68;;
22632;SDS011;11483;55.828;37.488;2023-04-06T05:25:58;25.42;;;6.57;;
22632;SDS011;11483;55.828;37.488;2023-04-06T05:28:24;8.57;;;4.63;;
22632;SDS011;11483;55.828;37.488;2023-04-06T05:30:50;14.93;;;4.95;;
22632;SDS011;11483;55.828;37.488;2023-04-06T05:33:16;15.60;;;5.68;;
22632;SDS011;11483;55.828;37.488;2023-04-06T05:35:42;11.82;;;4.45;;
22632;SDS011;11483;55.828;37.488;2023-04-06T05:38:08;9.45;;;5.00;;
22632;SDS011;11483;55.828;37.488;2023-04-06T05:40:37;23.42;;;5.38;;
22632;SDS011;11483;55.828;37.488;2023-04-06T05:43:05;9.57;;;5.45;;
22632;SDS011;11483;55.828;37.488;2023-04-06T05:45:32;15.43;;;5.80;;
22632;SDS011;11483;55.828;37.488;2023-04-06T05:47:58;13.38;;;5.53;;
22632;SDS011;11483;55.828;37.488;2023-04-06T05:50:24;17.05;;;6.43;;
22632;SDS011;11483;55.828;37.488;2023-04-06T05:52:50;11.18;;;5.45;;
22632;SDS011;11483;55.828;37.488;2023-04-06T05:55:16;14.38;;;5.30;;
22632;SDS011;11483;55.828;37.488;2023-04-06T05:57:41;9.45;;;5.07;;
22632;SDS011;11483;55.828;37.488;2023-04-06T06:00:07;13.05;;;5.18;;
22632;SDS011;11483;55.828;37.488;2023-04-06T06:02:35;12.43;;;5.50;;
22632;SDS011;11483;55.828;37.488;2023-04-06T06:05:01;24.15;;;6.63;;
22632;SDS011;11483;55.828;37.488;2023-04-06T06:07:27;8.38;;;4.65;;
22632;SDS011;11483;55.828;37.488;2023-04-06T06:09:56;13.15;;;5.18;;
22632;SDS011;11483;55.828;37.488;2023-04-06T06:12:23;14.35;;;5.82;;
22632;SDS011;11483;55.828;37.488;2023-04-06T06:14:48;17.98;;;5.32;;
22632;SDS011;11483;55.828;37.488;2023-04-06T06:17:15;20.25;;;5.78;;
22632;SDS011;11483;55.828;37.488;2023-04-06T06:19:40;13.40;;;5.93;;
22632;SDS011;11483;55.828;37.488;2023-04-06T06:22:06;17.63;;;5.82;;
22632;SDS011;11483;55.828;37.488;2023-04-06T06:24:32;18.60;;;5.22;;
22632;SDS011;11483;55.828;37.488;2023-04-06T06:26:58;10.63;;;5.60;;
22632;SDS011;11483;55.828;37.488;2023-04-06T06:29:24;9.63;;;4.95;;
22632;SDS011;11483;55.828;37.488;2023-04-06T06:31:50;17.13;;;5.47;;
22632;SDS011;11483;55.828;37.488;2023-04-06T06:34:16;17.08;;;5.32;;
22632;SDS011;11483;55.828;37.488;2023-04-06T06:36:42;12.07;;;5.25;;
22632;SDS011;11483;55.828;37.488;2023-04-06T06:39:08;24.13;;;5.72;;
22632;SDS011;11483;55.828;37.488;2023-04-06T06:41:34;13.20;;;5.78;;
22632;SDS011;11483;55.828;37.488;2023-04-06T06:44:00;10.73;;;5.70;;
22632;SDS011;11483;55.828;37.488;2023-04-06T06:46:26;11.43;;;5.60;;
22632;SDS011;11483;55.828;37.488;2023-04-06T06:48:52;15.73;;;5.25;;
22632;SDS011;11483;55.828;37.488;2023-04-06T06:51:18;13.57;;;5.43;;
22632;SDS011;11483;55.828;37.488;2023-04-06T06:53:44;12.77;;;5.10;;
22632;SDS011;11483;55.828;37.488;2023-04-06T06:56:10;12.93;;;5.40;;
22632;SDS011;11483;55.828;37.488;2023-04-06T06:58:36;11.52;;;4.43;;
22632;SDS011;11483;55.828;37.488;2023-04-06T07:01:02;13.77;;;5.07;;
22632;SDS011;11483;55.828;37.488;2023-04-06T07:03:30;26.30;;;5.13;;
22632;SDS011;11483;55.828;37.488;2023-04-06T07:05:56;10.02;;;4.72;;
22632;SDS011;11483;55.828;37.488;2023-04-06T07:08:22;11.93;;;4.72;;
22632;SDS011;11483;55.828;37.488;2023-04-06T07:10:52;18.63;;;4.88;;
22632;SDS011;11483;55.828;37.488;2023-04-06T07:13:21;11.65;;;4.25;;
22632;SDS011;11483;55.828;37.488;2023-04-06T07:15:51;9.27;;;3.92;;
22632;SDS011;11483;55.828;37.488;2023-04-06T07:18:19;11.52;;;4.47;;
22632;SDS011;11483;55.828;37.488;2023-04-06T07:20:46;20.45;;;4.82;;
22632;SDS011;11483;55.828;37.488;2023-04-06T07:23:11;8.00;;;4.00;;
22632;SDS011;11483;55.828;37.488;2023-04-06T07:25:37;12.38;;;4.07;;
22632;SDS011;11483;55.828;37.488;2023-04-06T07:28:03;16.15;;;4.15;;
22632;SDS011;11483;55.828;37.488;2023-04-06T07:30:30;19.73;;;3.78;;
22632;SDS011;11483;55.828;37.488;2023-04-06T07:32:56;29.05;;;4.75;;
22632;SDS011;11483;55.828;37.488;2023-04-06T07:35:26;13.75;;;4.47;;
22632;SDS011;11483;55.828;37.488;2023-04-06T07:37:53;9.50;;;4.03;;
22632;SDS011;11483;55.828;37.488;2023-04-06T07:40:19;15.00;;;4.65;;
22632;SDS011;11483;55.828;37.488;2023-04-06T07:42:45;13.38;;;4.43;;
22632;SDS011;11483;55.828;37.488;2023-04-06T07:45:11;13.93;;;4.20;;
22632;SDS011;11483;55.828;37.488;2023-04-06T07:47:38;10.50;;;3.85;;
22632;SDS011;11483;55.828;37.488;2023-04-06T07:50:04;13.02;;;4.20;;
22632;SDS011;11483;55.828;37.488;2023-04-06T07:52:30;13.00;;;4.00;;
22632;SDS011;11483;55.828;37.488;2023-04-06T07:54:59;17.23;;;4.13;;
22632;SDS011;11483;55.828;37.488;2023-04-06T07:57:25;17.55;;;4.50;;
22632;SDS011;11483;55.828;37.488;2023-04-06T07:59:51;22.52;;;4.30;;
22632;SDS011;11483;55.828;37.488;2023-04-06T08:02:17;10.43;;;3.58;;
22632;SDS011;11483;55.828;37.488;2023-04-06T08:04:43;11.63;;;3.78;;
22632;SDS011;11483;55.828;37.488;2023-04-06T08:07:09;14.65;;;3.92;;
22632;SDS011;11483;55.828;37.488;2023-04-06T08:09:35;11.05;;;3.72;;
22632;SDS011;11483;55.828;37.488;2023-04-06T08:12:01;8.82;;;3.75;;
22632;SDS011;11483;55.828;37.488;2023-04-06T08:14:27;12.13;;;3.67;;
22632;SDS011;11483;55.828;37.488;2023-04-06T08:16:53;20.55;;;4.45;;
22632;SDS011;11483;55.828;37.488;2023-04-06T08:19:18;12.88;;;3.70;;
22632;SDS011;11483;55.828;37.488;2023-04-06T08:21:45;19.38;;;4.10;;
22632;SDS011;11483;55.828;37.488;2023-04-06T08:24:11;24.13;;;4.03;;
22632;SDS011;11483;55.828;37.488;2023-04-06T08:26:37;8.85;;;3.33;;
22632;SDS011;11483;55.828;37.488;2023-04-06T08:29:03;8.55;;;3.53;;
22632;SDS011;11483;55.828;37.488;2023-04-06T08:31:32;11.32;;;3.55;;
22632;SDS011;11483;55.828;37.488;2023-04-06T08:34:02;9.35;;;3.60;;
22632;SDS011;11483;55.828;37.488;2023-04-06T08:36:29;15.17;;;3.60;;
22632;SDS011;11483;55.828;37.488;2023-04-06T08:38:55;13.57;;;3.10;;
22632;SDS011;11483;55.828;37.488;2023-04-06T08:41:22;14.07;;;3.28;;
22632;SDS011;11483;55.828;37.488;2023-04-06T08:43:49;14.05;;;3.42;;
22632;SDS011;11483;55.828;37.488;2023-04-06T08:56:04;15.00;;;2.78;;
22632;SDS011;11483;55.828;37.488;2023-04-06T12:04:57;7.45;;;2.40;;
22632;SDS011;11483;55.828;37.488;2023-04-06T12:07:23;9.10;;;2.70;;
22632;SDS011;11483;55.828;37.488;2023-04-06T12:09:49;14.65;;;3.47;;
22632;SDS011;11483;55.828;37.488;2023-04-06T12:12:15;12.43;;;3.60;;
22632;SDS011;11483;55.828;37.488;2023-04-06T12:14:41;8.98;;;2.97;;
22632;SDS011;11483;55.828;37.488;2023-04-06T12:17:07;13.75;;;2.80;;
22632;SDS011;11483;55.828;37.488;2023-04-06T12:19:33;6.32;;;2.50;;
22632;SDS011;11483;55.828;37.488;2023-04-06T12:21:58;12.03;;;2.30;;
22632;SDS011;11483;55.828;37.488;2023-04-06T12:24:24;12.60;;;2.50;;
22632;SDS011;11483;55.828;37.488;2023-04-06T12:26:50;16.47;;;2.80;;
22632;SDS011;11483;55.828;37.488;2023-04-06T12:29:17;24.75;;;4.90;;
22632;SDS011;11483;55.828;37.488;2023-04-06T12:31:43;13.13;;;3.17;;
22632;SDS011;11483;55.828;37.488;2023-04-06T12:34:10;15.82;;;2.92;;
22632;SDS011;11483;55.828;37.488;2023-04-06T12:36:36;8.45;;;2.50;;
22632;SDS011;11483;55.828;37.488;2023-04-06T12:39:03;18.13;;;2.80;;
22632;SDS011;11483;55.828;37.488;2023-04-06T12:41:30;5.40;;;2.33;;
22632;SDS011;11483;55.828;37.488;2023-04-06T12:43:55;15.48;;;2.60;;
22632;SDS011;11483;55.828;37.488;2023-04-06T12:46:21;13.80;;;2.90;;
22632;SDS011;11483;55.828;37.488;2023-04-06T12:48:48;20.30;;;2.63;;
22632;SDS011;11483;55.828;37.488;2023-04-06T12:51:14;12.32;;;2.33;;
22632;SDS011;11483;55.828;37.488;2023-04-06T12:53:40;13.68;;;2.50;;
22632;SDS011;11483;55.828;37.488;2023-04-06T12:56:13;7.32;;;2.40;;
22632;SDS011;11483;55.828;37.488;2023-04-06T12:58:40;17.00;;;2.40;;
22632;SDS011;11483;55.828;37.488;2023-04-06T13:01:07;9.80;;;2.20;;
22632;SDS011;11483;55.828;37.488;2023-04-06T13:03:33;13.45;;;2.30;;
22632;SDS011;11483;55.828;37.488;2023-04-06T13:05:59;11.43;;;2.35;;
22632;SDS011;11483;55.828;37.488;2023-04-06T13:08:26;16.75;;;3.30;;
22632;SDS011;11483;55.828;37.488;2023-04-06T13:10:52;9.47;;;2.20;;
22632;SDS011;11483;55.828;37.488;2023-04-06T13:13:23;9.38;;;1.67;;
22632;SDS011;11483;55.828;37.488;2023-04-06T13:15:50;12.70;;;2.10;;
22632;SDS011;11483;55.828;37.488;2023-04-06T13:18:17;11.52;;;2.03;;
22632;SDS011;11483;55.828;37.488;2023-04-06T13:20:43;15.25;;;1.95;;
22632;SDS011;11483;55.828;37.488;2023-04-06T13:23:09;9.67;;;1.90;;
22632;SDS011;11483;55.828;37.488;2023-04-06T13:25:36;13.53;;;2.90;;
22632;SDS011;11483;55.828;37.488;2023-04-06T13:28:02;8.77;;;1.80;;
22632;SDS011;11483;55.828;37.488;2023-04-06T13:30:28;13.02;;;2.00;;
22632;SDS011;11483;55.828;37.488;2023-04-06T13:32:54;10.65;;;1.83;;
22632;SDS011;11483;55.828;37.488;2023-04-06T13:35:20;5.40;;;1.90;;
22632;SDS011;11483;55.828;37.488;2023-04-06T13:37:46;8.80;;;1.70;;
22632;SDS011;11483;55.828;37.488;2023-04-06T13:40:13;8.73;;;1.90;;
22632;SDS011;11483;55.828;37.488;2023-04-06T13:42:39;12.18;;;1.80;;
22632;SDS011;11483;55.828;37.488;2023-04-06T13:45:06;10.63;;;2.20;;
22632;SDS011;11483;55.828;37.488;2023-04-06T13:47:32;9.77;;;2.00;;
22632;SDS011;11483;55.828;37.488;2023-04-06T13:49:58;11.23;;;1.80;;
22632;SDS011;11483;55.828;37.488;2023-04-06T13:52:25;18.40;;;2.10;;
22632;SDS011;11483;55.828;37.488;2023-04-06T13:54:51;10.67;;;1.87;;
22632;SDS011;11483;55.828;37.488;2023-04-06T13:57:17;17.02;;;2.30;;
22632;SDS011;11483;55.828;37.488;2023-04-06T13:59:43;10.68;;;2.03;;
22632;SDS011;11483;55.828;37.488;2023-04-06T14:02:09;7.80;;;1.60;;
22632;SDS011;11483;55.828;37.488;2023-04-06T14:04:36;13.07;;;1.77;;
22632;SDS011;11483;55.828;37.488;2023-04-06T14:07:02;6.77;;;1.50;;
22632;SDS011;11483;55.828;37.488;2023-04-06T14:09:29;10.25;;;1.90;;
22632;SDS011;11483;55.828;37.488;2023-04-06T14:11:55;11.82;;;1.42;;
22632;SDS011;11483;55.828;37.488;2023-04-06T14:14:21;6.73;;;1.43;;
22632;SDS011;11483;55.828;37.488;2023-04-06T14:16:48;11.00;;;1.65;;
22632;SDS011;11483;55.828;37.488;2023-04-06T14:19:15;21.17;;;1.75;;
22632;SDS011;11483;55.828;37.488;2023-04-06T14:21:43;11.00;;;1.40;;
22632;SDS011;11483;55.828;37.488;2023-04-06T14:24:09;6.85;;;1.40;;
22632;SDS011;11483;55.828;37.488;2023-04-06T14:26:36;9.38;;;1.40;;
22632;SDS011;11483;55.828;37.488;2023-04-06T14:29:03;13.73;;;1.63;;
22632;SDS011;11483;55.828;37.488;2023-04-06T14:31:29;8.13;;;1.38;;
22632;SDS011;11483;55.828;37.488;2023-04-06T14:33:55;6.13;;;1.80;;
22632;SDS011;11483;55.828;37.488;2023-04-06T14:36:22;7.22;;;1.60;;
22632;SDS011;11483;55.828;37.488;2023-04-06T14:38:48;10.50;;;2.00;;
22632;SDS011;11483;55.828;37.488;2023-04-06T14:41:18;12.05;;;1.92;;
22632;SDS011;11483;55.828;37.488;2023-04-06T14:43:48;13.35;;;1.63;;
22632;SDS011;11483;55.828;37.488;2023-04-06T14:46:14;5.60;;;1.30;;
22632;SDS011;11483;55.828;37.488;2023-04-06T14:48:43;10.82;;;1.55;;
22632;SDS011;11483;55.828;37.488;2023-04-06T14:51:10;9.45;;;1.52;;
22632;SDS011;11483;55.828;37.488;2023-04-06T14:53:36;3.83;;;1.40;;
22632;SDS011;11483;55.828;37.488;2023-04-06T14:56:02;6.53;;;1.30;;
22632;SDS011;11483;55.828;37.488;2023-04-06T14:58:28;6.70;;;1.40;;
22632;SDS011;11483;55.828;37.488;2023-04-06T15:00:55;7.10;;;1.40;;
22632;SDS011;11483;55.828;37.488;2023-04-06T15:03:22;7.32;;;1.52;;
22632;SDS011;11483;55.828;37.488;2023-04-06T15:05:50;12.73;;;1.55;;
22632;SDS011;11483;55.828;37.488;2023-04-06T15:08:16;11.00;;;1.50;;
22632;SDS011;11483;55.828;37.488;2023-04-06T15:10:45;19.55;;;1.77;;
22632;SDS011;11483;55.828;37.488;2023-04-06T15:13:12;12.63;;;1.63;;
22632;SDS011;11483;55.828;37.488;2023-04-06T15:15:38;14.80;;;1.70;;
22632;SDS011;11483;55.828;37.488;2023-04-06T15:18:04;14.70;;;1.80;;
22632;SDS011;11483;55.828;37.488;2023-04-06T15:20:30;16.08;;;1.67;;
22632;SDS011;11483;55.828;37.488;2023-04-06T15:22:56;11.23;;;1.40;;
22632;SDS011;11483;55.828;37.488;2023-04-06T15:25:22;10.88;;;1.70;;
22632;SDS011;11483;55.828;37.488;2023-04-06T15:27:49;11.07;;;1.70;;
22632;SDS011;11483;55.828;37.488;2023-04-06T15:30:15;12.20;;;1.73;;
22632;SDS011;11483;55.828;37.488;2023-04-06T15:32:46;17.33;;;2.22;;
22632;SDS011;11483;55.828;37.488;2023-04-06T15:35:19;6.88;;;1.83;;
22632;SDS011;11483;55.828;37.488;2023-04-06T15:37:46;10.00;;;1.67;;
22632;SDS011;11483;55.828;37.488;2023-04-06T15:40:12;31.08;;;2.03;;
22632;SDS011;11483;55.828;37.488;2023-04-06T15:42:39;11.48;;;1.50;;
22632;SDS011;11483;55.828;37.488;2023-04-06T15:45:07;8.25;;;1.80;;
22632;SDS011;11483;55.828;37.488;2023-04-06T15:47:33;7.43;;;2.03;;
22632;SDS011;11483;55.828;37.488;2023-04-06T15:49:59;12.52;;;2.70;;
22632;SDS011;11483;55.828;37.488;2023-04-06T15:52:25;11.52;;;1.70;;
22632;SDS011;11483;55.828;37.488;2023-04-06T15:54:52;4.40;;;1.50;;
22632;SDS011;11483;55.828;37.488;2023-04-06T15:57:17;11.48;;;1.95;;
22632;SDS011;11483;55.828;37.488;2023-04-06T15:59:43;11.85;;;1.58;;
22632;SDS011;11483;55.828;37.488;2023-04-06T16:09:26;7.13;;;1.50;;
22632;SDS011;11483;55.828;37.488;2023-04-06T16:11:52;8.17;;;1.70;;
22632;SDS011;11483;55.828;37.488;2023-04-06T16:14:18;4.97;;;1.35;;
22632;SDS011;11483;55.828;37.488;2023-04-06T16:26:26;6.35;;;2.08;;
22632;SDS011;11483;55.828;37.488;2023-04-06T16:28:52;8.60;;;2.03;;
22632;SDS011;11483;55.828;37.488;2023-04-06T16:31:19;4.07;;;2.00;;
22632;SDS011;11483;55.828;37.488;2023-04-06T16:33:50;5.72;;;1.88;;
22632;SDS011;11483;55.828;37.488;2023-04-06T16:36:25;9.60;;;1.88;;
22632;SDS011;11483;55.828;37.488;2023-04-06T16:38:52;4.32;;;1.80;;
22632;SDS011;11483;55.828;37.488;2023-04-06T16:41:22;12.18;;;2.30;;
22632;SDS011;11483;55.828;37.488;2023-04-06T16:46:14;11.75;;;2.55;;
22632;SDS011;11483;55.828;37.488;2023-04-06T16:48:41;10.73;;;2.40;;
22632;SDS011;11483;55.828;37.488;2023-04-06T16:51:07;7.57;;;2.30;;
22632;SDS011;11483;55.828;37.488;2023-04-06T16:53:34;7.15;;;2.03;;
22632;SDS011;11483;55.828;37.488;2023-04-06T16:56:02;8.55;;;2.28;;
22632;SDS011;11483;55.828;37.488;2023-04-06T16:58:29;17.05;;;2.65;;
22632;SDS011;11483;55.828;37.488;2023-04-06T17:00:56;6.63;;;1.90;;
22632;SDS011;11483;55.828;37.488;2023-04-06T17:03:24;9.13;;;2.10;;
22632;SDS011;11483;55.828;37.488;2023-04-06T17:05:51;16.65;;;2.35;;
22632;SDS011;11483;55.828;37.488;2023-04-06T17:08:17;8.63;;;2.10;;
22632;SDS011;11483;55.828;37.488;2023-04-06T17:10:42;17.67;;;2.38;;
22632;SDS011;11483;55.828;37.488;2023-04-06T17:13:08;5.70;;;1.83;;
22632;SDS011;11483;55.828;37.488;2023-04-06T17:15:34;3.50;;;1.70;;
22632;SDS011;11483;55.828;37.488;2023-04-06T17:18:00;4.20;;;1.80;;
22632;SDS011;11483;55.828;37.488;2023-04-06T17:20:26;5.53;;;1.80;;
22632;SDS011;11483;55.828;37.488;2023-04-06T17:30:11;11.50;;;2.38;;
22632;SDS011;11483;55.828;37.488;2023-04-06T17:32:38;7.53;;;2.25;;
22632;SDS011;11483;55.828;37.488;2023-04-06T17:35:04;9.05;;;2.40;;
22632;SDS011;11483;55.828;37.488;2023-04-06T17:37:30;10.15;;;2.42;;
22632;SDS011;11483;55.828;37.488;2023-04-06T17:39:56;7.88;;;2.33;;
22632;SDS011;11483;55.828;37.488;2023-04-06T17:42:22;10.15;;;2.30;;
22632;SDS011;11483;55.828;37.488;2023-04-06T17:44:48;8.35;;;2.78;;
22632;SDS011;11483;55.828;37.488;2023-04-06T17:47:15;8.47;;;2.70;;
22632;SDS011;11483;55.828;37.488;2023-04-06T17:49:41;10.80;;;2.28;;
22632;SDS011;11483;55.828;37.488;2023-04-06T17:52:07;12.15;;;2.42;;
22632;SDS011;11483;55.828;37.488;2023-04-06T17:54:36;13.52;;;2.55;;
22632;SDS011;11483;55.828;37.488;2023-04-06T17:57:02;12.05;;;2.20;;
22632;SDS011;11483;55.828;37.488;2023-04-06T17:59:31;4.53;;;2.25;;
22632;SDS011;11483;55.828;37.488;2023-04-06T18:01:57;10.23;;;3.05;;